Time;durP1;ratioP1;P1;durP2;ratioP2;P2;SDS_P1;SDS_P2;PMS_P1;PMS_P2;Temp;Humidity;BMP_temperature;BMP_pressure;BME280_temperature;BME280_humidity;BME280_pressure;Samples;Min_cycle;Max_cycle;Signal;HPM_P1;HPM_P2
2022/09/02 00:00:45;;;;;;;0.00;0.00;;;;;;;;;;4992327;28;20043;-90
2022/09/02 00:03:11;;;;;;;0.00;0.00;;;;;;;;;;4992059;28;20457;-90
2022/09/02 00:05:37;;;;;;;0.00;0.00;;;;;;;;;;4991386;28;20089;-88
2022/09/02 00:08:04;;;;;;;0.00;0.00;;;;;;;;;;4976836;28;20081;-89
2022/09/02 00:10:30;;;;;;;0.00;0.00;;;;;;;;;;4976603;28;20047;-88
2022/09/02 00:12:56;;;;;;;0.00;0.00;;;;;;;;;;4991664;28;20482;-89
2022/09/02 00:15:22;;;;;;;0.00;0.00;;;;;;;;;;4991169;28;20077;-89
2022/09/02 00:17:48;;;;;;;0.00;0.00;;;;;;;;;;4991671;28;20414;-90
2022/09/02 00:20:14;;;;;;;0.00;0.00;;;;;;;;;;4991161;28;20058;-90
2022/09/02 00:22:40;;;;;;;0.00;0.00;;;;;;;;;;4991315;28;20046;-88
2022/09/02 00:25:07;;;;;;;0.00;0.00;;;;;;;;;;4990947;28;20050;-87
2022/09/02 00:27:33;;;;;;;0.00;0.00;;;;;;;;;;4991539;28;20050;-86
2022/09/02 00:29:59;;;;;;;0.00;0.00;;;;;;;;;;4991102;28;20064;-86
2022/09/02 00:32:25;;;;;;;0.00;0.00;;;;;;;;;;4976083;28;20479;-86
2022/09/02 00:34:51;;;;;;;0.00;0.00;;;;;;;;;;4976057;28;20046;-88
2022/09/02 00:37:17;;;;;;;0.00;0.00;;;;;;;;;;4976305;28;20042;-88
2022/09/02 00:39:43;;;;;;;0.00;0.00;;;;;;;;;;4975806;28;20391;-86
2022/09/02 00:42:10;;;;;;;0.00;0.00;;;;;;;;;;4976112;28;20066;-86
2022/09/02 00:44:36;;;;;;;0.00;0.00;;;;;;;;;;4975419;28;20122;-86
2022/09/02 00:47:02;;;;;;;0.00;0.00;;;;;;;;;;4990793;28;20077;-87
2022/09/02 00:49:31;;;;;;;0.00;0.00;;;;;;;;;;4990606;28;20074;-86
2022/09/02 00:51:56;;;;;;;0.00;0.00;;;;;;;;;;4975970;28;20042;-88
2022/09/02 00:54:23;;;;;;;0.00;0.00;;;;;;;;;;4990512;28;20096;-87
2022/09/02 00:56:50;;;;;;;0.00;0.00;;;;;;;;;;4975658;28;20037;-86
2022/09/02 00:59:21;;;;;;;0.00;0.00;;;;;;;;;;4975361;28;20043;-86
2022/09/02 01:01:47;;;;;;;0.00;0.00;;;;;;;;;;4975746;28;20439;-86
2022/09/02 01:04:15;;;;;;;0.00;0.00;;;;;;;;;;4975149;28;20090;-86
2022/09/02 01:06:41;;;;;;;0.00;0.00;;;;;;;;;;4975800;28;20039;-89
2022/09/02 01:09:09;;;;;;;0.00;0.00;;;;;;;;;;4990423;28;20100;-90
2022/09/02 01:11:37;;;;;;;0.00;0.00;;;;;;;;;;4975565;28;20054;-91
2022/09/02 01:14:05;;;;;;;0.00;0.00;;;;;;;;;;4990104;28;20054;-89
2022/09/02 01:16:36;;;;;;;0.00;0.00;;;;;;;;;;4990217;28;20047;-89
2022/09/02 01:19:06;;;;;;;0.00;0.00;;;;;;;;;;4975109;28;20505;-89
2022/09/02 01:21:33;;;;;;;0.00;0.00;;;;;;;;;;4990481;28;20462;-87
2022/09/02 01:23:59;;;;;;;0.00;0.00;;;;;;;;;;4990365;28;20408;-88
2022/09/02 01:26:25;;;;;;;0.00;0.00;;;;;;;;;;4974937;28;20497;-88
2022/09/02 01:28:51;;;;;;;0.00;0.00;;;;;;;;;;4990289;28;20047;-87
2022/09/02 01:31:17;;;;;;;0.00;0.00;;;;;;;;;;4989640;28;20050;-88
2022/09/02 01:33:43;;;;;;;0.00;0.00;;;;;;;;;;4990171;28;20061;-88
2022/09/02 01:36:09;;;;;;;0.00;0.00;;;;;;;;;;4974742;28;20541;-88
2022/09/02 01:38:36;;;;;;;0.00;0.00;;;;;;;;;;4989831;28;20082;-87
2022/09/02 01:41:02;;;;;;;0.00;0.00;;;;;;;;;;4989955;28;20451;-90
2022/09/02 01:43:28;;;;;;;0.00;0.00;;;;;;;;;;4990408;28;20070;-92
2022/09/02 01:45:55;;;;;;;0.00;0.00;;;;;;;;;;4974998;28;20039;-88
2022/09/02 01:48:21;;;;;;;0.00;0.00;;;;;;;;;;4974884;28;20051;-88
2022/09/02 01:50:52;;;;;;;0.00;0.00;;;;;;;;;;4974750;28;20125;-87
2022/09/02 01:53:18;;;;;;;0.00;0.00;;;;;;;;;;4989547;28;20046;-87
2022/09/02 01:55:45;;;;;;;0.00;0.00;;;;;;;;;;4989031;28;20078;-90
2022/09/02 01:58:11;;;;;;;0.00;0.00;;;;;;;;;;4973297;28;20045;-88
2022/09/02 02:00:37;;;;;;;0.00;0.00;;;;;;;;;;4989229;28;20121;-88
2022/09/02 02:03:03;;;;;;;0.00;0.00;;;;;;;;;;4974759;28;20039;-89
2022/09/02 02:05:30;;;;;;;0.00;0.00;;;;;;;;;;4974251;28;20046;-89
2022/09/02 02:07:56;;;;;;;0.00;0.00;;;;;;;;;;4989639;28;20093;-88
2022/09/02 02:10:22;;;;;;;0.00;0.00;;;;;;;;;;4989352;28;20093;-87
2022/09/02 02:12:48;;;;;;;0.00;0.00;;;;;;;;;;4974224;28;20487;-90
2022/09/02 02:15:16;;;;;;;0.00;0.00;;;;;;;;;;4972804;28;20066;-88
2022/09/02 02:17:42;;;;;;;0.00;0.00;;;;;;;;;;4989506;28;20105;-90
2022/09/02 02:20:08;;;;;;;0.00;0.00;;;;;;;;;;4974054;28;20052;-90
2022/09/02 02:22:35;;;;;;;0.00;0.00;;;;;;;;;;4974370;28;20047;-87
2022/09/02 02:25:01;;;;;;;0.00;0.00;;;;;;;;;;4974113;28;20130;-87
2022/09/02 02:27:27;;;;;;;0.00;0.00;;;;;;;;;;4989108;28;20050;-87
2022/09/02 02:29:53;;;;;;;0.00;0.00;;;;;;;;;;4989056;28;20072;-86
2022/09/02 02:32:19;;;;;;;0.00;0.00;;;;;;;;;;4988968;28;20100;-87
2022/09/02 02:34:45;;;;;;;0.00;0.00;;;;;;;;;;4973879;28;20429;-88
2022/09/02 02:37:12;;;;;;;0.00;0.00;;;;;;;;;;4988947;28;20047;-88
2022/09/02 02:39:39;;;;;;;0.00;0.00;;;;;;;;;;4974216;28;20043;-87
2022/09/02 02:42:06;;;;;;;0.00;0.00;;;;;;;;;;4988800;28;20046;-86
2022/09/02 02:44:32;;;;;;;0.00;0.00;;;;;;;;;;4989177;28;20051;-89
2022/09/02 02:46:58;;;;;;;0.00;0.00;;;;;;;;;;4974104;28;20368;-88
2022/09/02 02:49:26;;;;;;;0.00;0.00;;;;;;;;;;4974608;28;20047;-92
2022/09/02 02:51:52;;;;;;;0.00;0.00;;;;;;;;;;4989543;28;20467;-93
2022/09/02 02:54:19;;;;;;;0.00;0.00;;;;;;;;;;4973741;28;20050;-94
2022/09/02 02:56:45;;;;;;;0.00;0.00;;;;;;;;;;4989395;28;20127;-94
2022/09/02 02:59:11;;;;;;;0.00;0.00;;;;;;;;;;4974728;28;20129;-90
2022/09/02 03:01:37;;;;;;;0.00;0.00;;;;;;;;;;4974383;28;20482;-91
2022/09/02 03:04:03;;;;;;;0.00;0.00;;;;;;;;;;4977202;28;20102;-92
2022/09/02 03:06:29;;;;;;;0.00;0.00;;;;;;;;;;4988689;28;20042;-89
2022/09/02 03:08:56;;;;;;;0.00;0.00;;;;;;;;;;4977266;28;20421;-88
2022/09/02 03:11:23;;;;;;;0.00;0.00;;;;;;;;;;4992601;28;20046;-87
2022/09/02 03:13:52;;;;;;;0.00;0.00;;;;;;;;;;4992737;28;20068;-87
2022/09/02 03:16:18;;;;;;;0.00;0.00;;;;;;;;;;4977121;28;20059;-87
2022/09/02 03:18:45;;;;;;;0.00;0.00;;;;;;;;;;4977526;28;20596;-87
2022/09/02 03:21:12;;;;;;;0.00;0.00;;;;;;;;;;4977383;28;20370;-85
2022/09/02 03:23:38;;;;;;;0.00;0.00;;;;;;;;;;4977340;28;20051;-88
2022/09/02 03:26:16;;;;;;;0.00;0.00;;;;;;;;;;4977326;28;20045;-87
2022/09/02 03:28:42;;;;;;;0.00;0.00;;;;;;;;;;4992961;28;20545;-87
2022/09/02 03:31:13;;;;;;;0.00;0.00;;;;;;;;;;4991950;28;20035;-88
2022/09/02 03:33:39;;;;;;;0.00;0.00;;;;;;;;;;4992412;28;20051;-90
2022/09/02 03:36:05;;;;;;;0.00;0.00;;;;;;;;;;4992218;28;20059;-87
2022/09/02 03:38:31;;;;;;;0.00;0.00;;;;;;;;;;4992409;28;20042;-88
2022/09/02 03:40:57;;;;;;;0.00;0.00;;;;;;;;;;4992138;28;20429;-90
2022/09/02 03:43:23;;;;;;;0.00;0.00;;;;;;;;;;4977259;28;20053;-90
2022/09/02 03:45:49;;;;;;;0.00;0.00;;;;;;;;;;4991952;28;20237;-90
2022/09/02 03:48:14;;;;;;;0.00;0.00;;;;;;;;;;4977052;28;20085;-88
2022/09/02 03:50:42;;;;;;;0.00;0.00;;;;;;;;;;4976782;28;20030;-87
2022/09/02 03:53:08;;;;;;;0.00;0.00;;;;;;;;;;4975764;28;20055;-87
2022/09/02 03:55:35;;;;;;;0.00;0.00;;;;;;;;;;4991821;28;20065;-87
2022/09/02 03:58:01;;;;;;;0.00;0.00;;;;;;;;;;4991682;28;20078;-88
2022/09/02 04:00:32;;;;;;;0.00;0.00;;;;;;;;;;4976923;28;20039;-88
2022/09/02 04:03:00;;;;;;;0.00;0.00;;;;;;;;;;4976663;28;20050;-87
2022/09/02 04:05:26;;;;;;;0.00;0.00;;;;;;;;;;4991825;28;20038;-88
2022/09/02 04:07:52;;;;;;;0.00;0.00;;;;;;;;;;4976705;28;20563;-88
2022/09/02 04:10:19;;;;;;;0.00;0.00;;;;;;;;;;4992427;28;20049;-88
2022/09/02 04:12:45;;;;;;;0.00;0.00;;;;;;;;;;4991265;28;20105;-86
2022/09/02 04:15:12;;;;;;;0.00;0.00;;;;;;;;;;4976341;28;20055;-88
2022/09/02 04:17:39;;;;;;;0.00;0.00;;;;;;;;;;4976486;28;20057;-89
2022/09/02 04:20:06;;;;;;;0.00;0.00;;;;;;;;;;4975716;28;20510;-90
2022/09/02 04:22:32;;;;;;;0.00;0.00;;;;;;;;;;4976134;28;20491;-89
2022/09/02 04:24:58;;;;;;;0.00;0.00;;;;;;;;;;4991418;28;20558;-91
2022/09/02 04:27:25;;;;;;;0.00;0.00;;;;;;;;;;4975392;28;20046;-92
2022/09/02 04:29:51;;;;;;;0.00;0.00;;;;;;;;;;4991930;28;20101;-91
2022/09/02 04:32:17;;;;;;;0.00;0.00;;;;;;;;;;4991096;28;20542;-90
2022/09/02 04:34:43;;;;;;;0.00;0.00;;;;;;;;;;4975608;28;20047;-92
2022/09/02 04:37:12;;;;;;;0.00;0.00;;;;;;;;;;4976191;28;20136;-92
2022/09/02 04:39:38;;;;;;;0.00;0.00;;;;;;;;;;4991725;28;20053;-91
2022/09/02 04:42:04;;;;;;;0.00;0.00;;;;;;;;;;4990893;28;20402;-87
2022/09/02 04:44:30;;;;;;;0.00;0.00;;;;;;;;;;4990936;28;20446;-88
2022/09/02 04:46:56;;;;;;;0.00;0.00;;;;;;;;;;4976104;28;20044;-91
2022/09/02 04:49:22;;;;;;;0.00;0.00;;;;;;;;;;4991791;28;20042;-95
2022/09/02 04:51:49;;;;;;;0.00;0.00;;;;;;;;;;4976802;28;20101;-92
2022/09/02 04:54:15;;;;;;;0.00;0.00;;;;;;;;;;4976697;28;20066;-89
2022/09/02 04:56:41;;;;;;;0.00;0.00;;;;;;;;;;4991658;28;20074;-91
2022/09/02 04:59:07;;;;;;;0.00;0.00;;;;;;;;;;4976107;28;20413;-91
2022/09/02 05:01:35;;;;;;;0.00;0.00;;;;;;;;;;4975035;28;20057;-91
2022/09/02 05:04:03;;;;;;;0.00;0.00;;;;;;;;;;4976372;28;20050;-93
2022/09/02 05:06:30;;;;;;;0.00;0.00;;;;;;;;;;5112057;22;20054;-90
2022/09/02 05:08:58;;;;;;;0.00;0.00;;;;;;;;;;5013243;28;20390;-91
2022/09/02 05:11:28;;;;;;;0.00;0.00;;;;;;;;;;5015473;28;20131;-85
2022/09/02 05:13:55;;;;;;;0.00;0.00;;;;;;;;;;5014658;28;20124;-90
2022/09/02 05:16:25;;;;;;;0.00;0.00;;;;;;;;;;5014196;28;20038;-89
2022/09/02 05:18:52;;;;;;;0.00;0.00;;;;;;;;;;5015155;28;20069;-90
2022/09/02 05:21:19;;;;;;;0.00;0.00;;;;;;;;;;5015947;28;20042;-90
2022/09/02 05:23:44;;;;;;;0.00;0.00;;;;;;;;;;5014551;28;20049;-89
2022/09/02 05:26:12;;;;;;;0.00;0.00;;;;;;;;;;5013592;28;20042;-93
2022/09/02 05:28:39;;;;;;;0.00;0.00;;;;;;;;;;5013927;28;20042;-91
2022/09/02 05:31:06;;;;;;;0.00;0.00;;;;;;;;;;5014463;28;20056;-93
2022/09/02 05:33:33;;;;;;;0.00;0.00;;;;;;;;;;5012829;28;20046;-90
2022/09/02 05:35:59;;;;;;;0.00;0.00;;;;;;;;;;5014208;28;20038;-89
2022/09/02 05:38:25;;;;;;;0.00;0.00;;;;;;;;;;5012954;28;20120;-90
2022/09/02 05:40:51;;;;;;;0.00;0.00;;;;;;;;;;5012744;28;20537;-88
2022/09/02 05:43:17;;;;;;;0.00;0.00;;;;;;;;;;5014543;28;20125;-94
2022/09/02 05:45:43;;;;;;;0.00;0.00;;;;;;;;;;5013360;28;20137;-92
2022/09/02 05:50:53;;;;;;;0.00;0.00;;;;;;;;;;5014426;28;20045;-90
2022/09/02 05:53:19;;;;;;;0.00;0.00;;;;;;;;;;5013799;28;20128;-88
2022/09/02 05:55:45;;;;;;;0.00;0.00;;;;;;;;;;5012469;28;20046;-89
2022/09/02 05:58:12;;;;;;;0.00;0.00;;;;;;;;;;5013697;28;20504;-91
2022/09/02 06:00:39;;;;;;;0.00;0.00;;;;;;;;;;5015338;28;20100;-92
2022/09/02 06:03:05;;;;;;;0.00;0.00;;;;;;;;;;5016496;28;20046;-94
2022/09/02 06:05:31;;;;;;;0.00;0.00;;;;;;;;;;5012912;28;20448;-81
2022/09/02 06:07:57;;;;;;;0.00;0.00;;;;;;;;;;5013250;28;20485;-85
2022/09/02 06:10:23;;;;;;;0.00;0.00;;;;;;;;;;5012734;28;20045;-85
2022/09/02 06:12:49;;;;;;;0.00;0.00;;;;;;;;;;5014505;28;20061;-85
2022/09/02 06:15:16;;;;;;;0.00;0.00;;;;;;;;;;5014465;28;20437;-82
2022/09/02 06:17:42;;;;;;;0.00;0.00;;;;;;;;;;5012709;28;20092;-83
2022/09/02 06:20:08;;;;;;;0.00;0.00;;;;;;;;;;5012132;28;20037;-83
2022/09/02 06:22:34;;;;;;;0.00;0.00;;;;;;;;;;5013065;28;20069;-84
2022/09/02 06:25:00;;;;;;;0.00;0.00;;;;;;;;;;5013110;28;20042;-85
2022/09/02 06:27:26;;;;;;;0.00;0.00;;;;;;;;;;5013347;28;20049;-83
2022/09/02 06:29:52;;;;;;;0.00;0.00;;;;;;;;;;5011921;28;20049;-83
2022/09/02 06:32:19;;;;;;;0.00;0.00;;;;;;;;;;5011825;28;20042;-85
2022/09/02 06:34:45;;;;;;;0.00;0.00;;;;;;;;;;5012118;28;20053;-84
2022/09/02 06:37:11;;;;;;;0.00;0.00;;;;;;;;;;5011699;28;20046;-85
2022/09/02 06:39:37;;;;;;;0.00;0.00;;;;;;;;;;5013658;28;20404;-83
2022/09/02 06:42:03;;;;;;;0.00;0.00;;;;;;;;;;5013410;28;20046;-83
2022/09/02 06:44:29;;;;;;;0.00;0.00;;;;;;;;;;5018243;28;20199;-84
2022/09/02 06:46:57;;;;;;;0.00;0.00;;;;;;;;;;5018408;28;20052;-84
2022/09/02 06:49:24;;;;;;;0.00;0.00;;;;;;;;;;5019409;28;20492;-84
2022/09/02 06:51:51;;;;;;;0.00;0.00;;;;;;;;;;5019614;28;20124;-84
2022/09/02 06:54:18;;;;;;;0.00;0.00;;;;;;;;;;5018186;28;20050;-84
2022/09/02 06:56:45;;;;;;;0.00;0.00;;;;;;;;;;5018246;28;20050;-84
2022/09/02 06:59:11;;;;;;;0.00;0.00;;;;;;;;;;5016884;28;20056;-84
2022/09/02 07:01:37;;;;;;;0.00;0.00;;;;;;;;;;5019446;28;20045;-84
2022/09/02 07:06:50;;;;;;;0.00;0.00;;;;;;;;;;5018018;28;20061;-85
2022/09/02 07:09:17;;;;;;;0.00;0.00;;;;;;;;;;5019436;28;20125;-83
2022/09/02 07:11:46;;;;;;;0.00;0.00;;;;;;;;;;5019391;28;20156;-86
2022/09/02 07:14:14;;;;;;;0.00;0.00;;;;;;;;;;5019400;28;20042;-84
2022/09/02 07:16:44;;;;;;;0.00;0.00;;;;;;;;;;5019221;28;20504;-84
2022/09/02 07:19:11;;;;;;;0.00;0.00;;;;;;;;;;5018110;28;20366;-84
2022/09/02 07:21:38;;;;;;;0.00;0.00;;;;;;;;;;5018197;28;20560;-84
2022/09/02 07:24:04;;;;;;;0.00;0.00;;;;;;;;;;5017805;28;20057;-85
2022/09/02 07:26:30;;;;;;;0.00;0.00;;;;;;;;;;5018226;28;20042;-84
2022/09/02 07:28:57;;;;;;;0.00;0.00;;;;;;;;;;5019261;28;20069;-85
2022/09/02 07:31:23;;;;;;;0.00;0.00;;;;;;;;;;5017821;28;20049;-86
2022/09/02 07:33:49;;;;;;;0.00;0.00;;;;;;;;;;5017705;28;20037;-86
2022/09/02 07:36:15;;;;;;;0.00;0.00;;;;;;;;;;5019056;28;20397;-85
2022/09/02 07:38:41;;;;;;;0.00;0.00;;;;;;;;;;5019193;28;20096;-85
2022/09/02 07:41:10;;;;;;;0.00;0.00;;;;;;;;;;5017746;28;20049;-84
2022/09/02 07:43:36;;;;;;;0.00;0.00;;;;;;;;;;5019457;28;20128;-84
2022/09/02 07:46:03;;;;;;;0.00;0.00;;;;;;;;;;5002192;28;20034;-85
2022/09/02 07:48:30;;;;;;;0.00;0.00;;;;;;;;;;5018934;28;20034;-86
2022/09/02 07:50:56;;;;;;;0.00;0.00;;;;;;;;;;5020542;28;20069;-85
2022/09/02 07:53:22;;;;;;;0.10;0.00;;;;;;;;;;5018064;28;20081;-86
2022/09/02 07:55:49;;;;;;;0.00;0.00;;;;;;;;;;5016188;28;20076;-85
2022/09/02 07:58:16;;;;;;;0.00;0.00;;;;;;;;;;5015730;28;20084;-84
2022/09/02 08:00:42;;;;;;;0.00;0.00;;;;;;;;;;5016006;28;20042;-85
2022/09/02 08:03:09;;;;;;;0.00;0.00;;;;;;;;;;5014473;28;20413;-84
2022/09/02 08:05:35;;;;;;;0.00;0.00;;;;;;;;;;5014175;28;20054;-85
2022/09/02 08:08:01;;;;;;;0.00;0.00;;;;;;;;;;5014534;28;20048;-88
2022/09/02 08:10:28;;;;;;;0.00;0.00;;;;;;;;;;5014556;28;20440;-84
2022/09/02 08:12:56;;;;;;;0.00;0.00;;;;;;;;;;5014508;28;20413;-85
2022/09/02 08:15:22;;;;;;;0.00;0.00;;;;;;;;;;5015537;28;20061;-85
2022/09/02 08:17:49;;;;;;;0.00;0.00;;;;;;;;;;5014227;28;20045;-85
2022/09/02 08:20:16;;;;;;;0.00;0.00;;;;;;;;;;5015508;28;20111;-84
2022/09/02 08:22:42;;;;;;;0.00;0.00;;;;;;;;;;5014569;28;20080;-84
2022/09/02 08:25:08;;;;;;;0.00;0.00;;;;;;;;;;5013786;28;20056;-84
2022/09/02 08:27:34;;;;;;;0.00;0.00;;;;;;;;;;5014010;28;20512;-84
2022/09/02 08:30:00;;;;;;;0.00;0.00;;;;;;;;;;5014020;28;20069;-85
2022/09/02 08:32:31;;;;;;;0.00;0.00;;;;;;;;;;5015162;28;20038;-85
2022/09/02 08:35:01;;;;;;;0.00;0.00;;;;;;;;;;5013841;28;20049;-86
2022/09/02 08:37:27;;;;;;;0.00;0.00;;;;;;;;;;5016194;28;20073;-84
2022/09/02 08:39:53;;;;;;;0.00;0.00;;;;;;;;;;5015184;28;20041;-86
2022/09/02 08:42:26;;;;;;;0.00;0.00;;;;;;;;;;5015044;28;20042;-85
2022/09/02 08:44:57;;;;;;;0.00;0.00;;;;;;;;;;5014978;28;20050;-84
2022/09/02 08:47:25;;;;;;;0.00;0.00;;;;;;;;;;5015066;28;20034;-84
2022/09/02 08:49:54;;;;;;;0.00;0.00;;;;;;;;;;5013792;28;20034;-83
2022/09/02 08:52:25;;;;;;;0.00;0.00;;;;;;;;;;5014857;28;20042;-85
2022/09/02 08:54:56;;;;;;;0.00;0.00;;;;;;;;;;5014595;28;20524;-85
2022/09/02 08:57:26;;;;;;;0.00;0.00;;;;;;;;;;5014985;28;20046;-84
2022/09/02 08:59:53;;;;;;;0.00;0.00;;;;;;;;;;5013460;28;20105;-84
2022/09/02 09:02:44;;;;;;;0.00;0.00;;;;;;;;;;5014782;28;20038;-84
2022/09/02 09:05:17;;;;;;;0.00;0.00;;;;;;;;;;5012485;28;20054;-85
2022/09/02 09:07:45;;;;;;;0.00;0.00;;;;;;;;;;5014770;28;20073;-84
2022/09/02 09:10:37;;;;;;;0.00;0.00;;;;;;;;;;5014217;28;20552;-85
2022/09/02 09:13:14;;;;;;;0.00;0.00;;;;;;;;;;5013415;28;20053;-85
2022/09/02 09:15:59;;;;;;;0.00;0.00;;;;;;;;;;5014475;28;20041;-85
2022/09/02 09:18:33;;;;;;;0.00;0.00;;;;;;;;;;5014225;28;20501;-85
2022/09/02 09:20:59;;;;;;;0.00;0.00;;;;;;;;;;5014207;28;20042;-84
2022/09/02 09:23:32;;;;;;;0.00;0.00;;;;;;;;;;5013207;28;20049;-84
2022/09/02 09:26:04;;;;;;;0.00;0.00;;;;;;;;;;4996465;28;20044;-84
2022/09/02 09:28:30;;;;;;;0.00;0.00;;;;;;;;;;5014372;28;20034;-84
2022/09/02 09:30:59;;;;;;;0.00;0.00;;;;;;;;;;5013883;28;20615;-85
2022/09/02 09:33:26;;;;;;;0.00;0.00;;;;;;;;;;5013186;28;20034;-85
2022/09/02 09:35:53;;;;;;;0.00;0.00;;;;;;;;;;5012801;28;20054;-85
2022/09/02 09:38:29;;;;;;;0.00;0.00;;;;;;;;;;5014040;28;20041;-84
2022/09/02 09:41:14;;;;;;;0.00;0.00;;;;;;;;;;5012559;28;20093;-85
2022/09/02 09:43:40;;;;;;;0.00;0.00;;;;;;;;;;5013958;28;20038;-83
2022/09/02 09:46:26;;;;;;;0.00;0.00;;;;;;;;;;5012395;28;20041;-84
2022/09/02 09:48:52;;;;;;;0.00;0.00;;;;;;;;;;5014045;28;20042;-84
2022/09/02 09:51:18;;;;;;;0.00;0.00;;;;;;;;;;5013364;28;20129;-83
2022/09/02 09:53:44;;;;;;;0.00;0.00;;;;;;;;;;5013945;28;20038;-83
2022/09/02 09:56:13;;;;;;;0.00;0.00;;;;;;;;;;5013713;28;20044;-84
2022/09/02 09:58:39;;;;;;;0.00;0.00;;;;;;;;;;5013828;28;20117;-86
2022/09/02 10:01:11;;;;;;;0.00;0.00;;;;;;;;;;5012230;28;20517;-84
2022/09/02 10:03:40;;;;;;;0.00;0.00;;;;;;;;;;5013350;28;20473;-83
2022/09/02 10:06:32;;;;;;;0.00;0.00;;;;;;;;;;5011852;28;20081;-85
2022/09/02 10:09:21;;;;;;;0.00;0.00;;;;;;;;;;5004794;28;20046;-85
2022/09/02 10:11:55;;;;;;;0.20;0.00;;;;;;;;;;5012719;28;20409;-84
2022/09/02 10:14:21;;;;;;;0.00;0.00;;;;;;;;;;5013310;28;20042;-83
2022/09/02 10:16:56;;;;;;;0.00;0.00;;;;;;;;;;5011490;28;20099;-84
2022/09/02 10:19:41;;;;;;;0.00;0.00;;;;;;;;;;5013418;28;20104;-84
2022/09/02 10:22:30;;;;;;;0.00;0.00;;;;;;;;;;5013518;28;20053;-84
2022/09/02 10:25:15;;;;;;;0.00;0.00;;;;;;;;;;5011750;28;20060;-85
2022/09/02 10:27:50;;;;;;;0.00;0.00;;;;;;;;;;5013521;28;20119;-83
2022/09/02 10:30:20;;;;;;;0.00;0.00;;;;;;;;;;5013195;28;20046;-85
2022/09/02 10:33:06;;;;;;;0.00;0.00;;;;;;;;;;5012049;28;20316;-84
2022/09/02 10:35:38;;;;;;;0.00;0.00;;;;;;;;;;5012075;28;20080;-84
2022/09/02 10:38:10;;;;;;;0.00;0.00;;;;;;;;;;5013330;28;20103;-84
2022/09/02 10:40:41;;;;;;;0.00;0.00;;;;;;;;;;5012887;28;20508;-84
2022/09/02 10:43:08;;;;;;;0.00;0.00;;;;;;;;;;5011808;28;20127;-84
2022/09/02 10:45:49;;;;;;;0.00;0.00;;;;;;;;;;5012744;28;20386;-84
2022/09/02 10:48:29;;;;;;;0.00;0.00;;;;;;;;;;5012171;28;20045;-83
2022/09/02 10:51:14;;;;;;;0.00;0.00;;;;;;;;;;5011795;28;20048;-84
2022/09/02 10:53:49;;;;;;;0.00;0.00;;;;;;;;;;5012912;28;20446;-83
2022/09/02 10:56:20;;;;;;;0.00;0.00;;;;;;;;;;5013014;28;20041;-84
2022/09/02 10:59:00;;;;;;;0.00;0.00;;;;;;;;;;5012425;28;20508;-84
2022/09/02 11:01:28;;;;;;;0.00;0.00;;;;;;;;;;5011364;28;20409;-84
2022/09/02 11:04:15;;;;;;;0.00;0.00;;;;;;;;;;5011426;28;20050;-84
2022/09/02 11:06:43;;;;;;;0.00;0.00;;;;;;;;;;5011368;28;20180;-84
2022/09/02 11:09:24;;;;;;;0.00;0.00;;;;;;;;;;5011511;28;20050;-83
2022/09/02 11:11:51;;;;;;;0.20;0.00;;;;;;;;;;5011450;28;20038;-83
2022/09/02 11:14:22;;;;;;;0.00;0.00;;;;;;;;;;5012707;28;20060;-84
2022/09/02 11:16:50;;;;;;;0.00;0.00;;;;;;;;;;5011290;28;20046;-84
2022/09/02 11:19:23;;;;;;;0.00;0.00;;;;;;;;;;5011800;28;20141;-84
2022/09/02 11:21:52;;;;;;;0.00;0.00;;;;;;;;;;5012750;28;20093;-83
2022/09/02 11:24:18;;;;;;;0.00;0.00;;;;;;;;;;5011269;28;20046;-84
2022/09/02 11:26:44;;;;;;;0.00;0.00;;;;;;;;;;5012396;28;20436;-84
2022/09/02 11:29:23;;;;;;;0.00;0.00;;;;;;;;;;5013345;28;20049;-84
2022/09/02 11:32:10;;;;;;;0.00;0.00;;;;;;;;;;5015109;28;20045;-84
2022/09/02 11:34:39;;;;;;;0.00;0.00;;;;;;;;;;5015286;28;20046;-86
2022/09/02 11:37:09;;;;;;;0.00;0.00;;;;;;;;;;5014816;28;20112;-83
2022/09/02 11:39:50;;;;;;;0.00;0.00;;;;;;;;;;5014955;28;20093;-84
2022/09/02 11:42:19;;;;;;;0.00;0.00;;;;;;;;;;5014594;28;20054;-83
2022/09/02 11:44:48;;;;;;;0.00;0.00;;;;;;;;;;5015051;28;20125;-83
2022/09/02 11:47:28;;;;;;;0.00;0.00;;;;;;;;;;5016038;28;20038;-84
2022/09/02 11:50:09;;;;;;;0.00;0.00;;;;;;;;;;5014840;28;20049;-85
2022/09/02 11:52:57;;;;;;;0.00;0.00;;;;;;;;;;4998201;28;20517;-84
2022/09/02 11:55:23;;;;;;;0.00;0.00;;;;;;;;;;5015851;28;20045;-84
2022/09/02 11:57:56;;;;;;;0.00;0.00;;;;;;;;;;5014667;28;20236;-84
2022/09/02 12:00:28;;;;;;;0.00;0.00;;;;;;;;;;5014619;28;20045;-84
2022/09/02 12:03:06;;;;;;;0.00;0.00;;;;;;;;;;5015837;28;20038;-84
2022/09/02 12:05:36;;;;;;;0.00;0.00;;;;;;;;;;5015371;28;20053;-82
2022/09/02 12:08:11;;;;;;;0.00;0.00;;;;;;;;;;5014400;28;20229;-82
2022/09/02 12:10:43;;;;;;;0.00;0.00;;;;;;;;;;5015345;28;20053;-82
2022/09/02 12:13:11;;;;;;;0.00;0.00;;;;;;;;;;5014174;28;20054;-82
2022/09/02 12:15:39;;;;;;;0.00;0.00;;;;;;;;;;5015511;28;20042;-82
2022/09/02 12:18:12;;;;;;;0.00;0.00;;;;;;;;;;4997931;28;20046;-82
2022/09/02 12:20:40;;;;;;;0.00;0.00;;;;;;;;;;5014141;28;20460;-82
2022/09/02 12:23:10;;;;;;;0.00;0.00;;;;;;;;;;5014405;28;20085;-82
2022/09/02 12:25:48;;;;;;;0.00;0.00;;;;;;;;;;4997514;28;20457;-82
2022/09/02 12:28:22;;;;;;;0.00;0.00;;;;;;;;;;5015293;28;20121;-82
2022/09/02 12:30:54;;;;;;;0.00;0.00;;;;;;;;;;5013888;28;20058;-82
2022/09/02 12:33:29;;;;;;;0.00;0.00;;;;;;;;;;5015364;28;20397;-82
2022/09/02 12:35:57;;;;;;;0.00;0.00;;;;;;;;;;5013699;28;20046;-82
2022/09/02 12:38:24;;;;;;;0.20;0.00;;;;;;;;;;5013865;28;20045;-81
2022/09/02 12:40:53;;;;;;;0.00;0.00;;;;;;;;;;5012753;28;20049;-82
2022/09/02 12:43:24;;;;;;;0.00;0.00;;;;;;;;;;5014786;28;20034;-81
2022/09/02 12:45:52;;;;;;;0.00;0.00;;;;;;;;;;5013450;28;20041;-82
2022/09/02 12:48:22;;;;;;;0.00;0.00;;;;;;;;;;5014552;28;20140;-82
2022/09/02 12:50:58;;;;;;;0.00;0.00;;;;;;;;;;5013437;28;20528;-81
2022/09/02 12:53:41;;;;;;;0.00;0.00;;;;;;;;;;5013877;28;20088;-81
2022/09/02 12:56:21;;;;;;;0.00;0.00;;;;;;;;;;5013595;28;20049;-82
2022/09/02 12:58:49;;;;;;;0.00;0.00;;;;;;;;;;5013457;28;20042;-81
2022/09/02 13:01:33;;;;;;;0.00;0.00;;;;;;;;;;4997190;28;20049;-81
2022/09/02 13:04:08;;;;;;;0.43;0.00;;;;;;;;;;5013351;28;20041;-81
2022/09/02 13:06:34;;;;;;;0.00;0.00;;;;;;;;;;5014351;28;20061;-81
2022/09/02 13:09:09;;;;;;;0.00;0.00;;;;;;;;;;5013316;28;20050;-80
2022/09/02 13:11:54;;;;;;;0.00;0.00;;;;;;;;;;5013291;28;20077;-81
2022/09/02 13:14:35;;;;;;;0.00;0.00;;;;;;;;;;5014691;28;20076;-81
2022/09/02 13:17:13;;;;;;;0.00;0.00;;;;;;;;;;5014461;28;20038;-81
2022/09/02 13:19:39;;;;;;;0.00;0.00;;;;;;;;;;5013410;28;20394;-81
2022/09/02 13:22:20;;;;;;;0.00;0.00;;;;;;;;;;5012666;28;20041;-81
2022/09/02 13:25:02;;;;;;;0.00;0.00;;;;;;;;;;5014225;28;20612;-81
2022/09/02 13:27:41;;;;;;;0.00;0.00;;;;;;;;;;5012797;28;20053;-81
2022/09/02 13:30:13;;;;;;;0.00;0.00;;;;;;;;;;5013209;28;20045;-81
2022/09/02 13:32:39;;;;;;;0.00;0.00;;;;;;;;;;5014302;28;20434;-81
2022/09/02 13:35:16;;;;;;;0.00;0.00;;;;;;;;;;5012981;28;20046;-81
2022/09/02 13:37:43;;;;;;;0.00;0.00;;;;;;;;;;5014069;28;20098;-81
2022/09/02 13:40:19;;;;;;;0.00;0.00;;;;;;;;;;5013046;28;20385;-81
2022/09/02 13:42:50;;;;;;;0.00;0.00;;;;;;;;;;5011317;28;20038;-81
2022/09/02 13:45:18;;;;;;;0.00;0.00;;;;;;;;;;5012718;28;20115;-81
2022/09/02 13:47:45;;;;;;;0.00;0.00;;;;;;;;;;5013889;28;20038;-81
2022/09/02 13:50:12;;;;;;;0.00;0.00;;;;;;;;;;5012536;28;20042;-81
2022/09/02 13:52:40;;;;;;;0.00;0.00;;;;;;;;;;5012352;28;20073;-81
2022/09/02 13:55:08;;;;;;;0.00;0.00;;;;;;;;;;4996024;28;20049;-80
2022/09/02 13:57:35;;;;;;;0.00;0.00;;;;;;;;;;5012267;28;20056;-81
2022/09/02 14:00:02;;;;;;;0.00;0.00;;;;;;;;;;5013903;28;20398;-80
2022/09/02 14:02:35;;;;;;;0.00;0.00;;;;;;;;;;5012030;28;20041;-81
2022/09/02 14:05:12;;;;;;;0.00;0.00;;;;;;;;;;5013445;28;20106;-81
2022/09/02 14:07:46;;;;;;;0.00;0.00;;;;;;;;;;5011988;28;20107;-80
2022/09/02 14:10:16;;;;;;;0.00;0.00;;;;;;;;;;5012429;28;20045;-81
2022/09/02 14:12:43;;;;;;;0.00;0.00;;;;;;;;;;5013462;28;20049;-81
2022/09/02 14:15:12;;;;;;;0.00;0.00;;;;;;;;;;5012193;28;20085;-81
2022/09/02 14:17:38;;;;;;;0.00;0.00;;;;;;;;;;5011947;28;20544;-81
2022/09/02 14:20:17;;;;;;;0.00;0.00;;;;;;;;;;5012094;28;20480;-81
2022/09/02 14:22:43;;;;;;;0.00;0.00;;;;;;;;;;5012149;28;20104;-81
2022/09/02 14:25:12;;;;;;;0.00;0.00;;;;;;;;;;5012120;28;20049;-81
2022/09/02 14:27:39;;;;;;;0.00;0.00;;;;;;;;;;5013019;28;20037;-81
2022/09/02 14:30:08;;;;;;;0.00;0.00;;;;;;;;;;5013232;28;20038;-81
2022/09/02 14:32:34;;;;;;;0.00;0.00;;;;;;;;;;5012953;28;20441;-82
2022/09/02 14:35:19;;;;;;;0.00;0.00;;;;;;;;;;5013401;28;20072;-81
2022/09/02 14:38:02;;;;;;;0.00;0.00;;;;;;;;;;5013045;28;20048;-81
2022/09/02 14:40:39;;;;;;;0.00;0.00;;;;;;;;;;5009314;28;20053;-81
2022/09/02 14:43:11;;;;;;;0.00;0.00;;;;;;;;;;5012803;28;20050;-82
2022/09/02 14:45:37;;;;;;;0.00;0.00;;;;;;;;;;5013395;28;20046;-82
2022/09/02 14:48:10;;;;;;;0.00;0.00;;;;;;;;;;5010546;28;20425;-82
2022/09/02 14:50:37;;;;;;;0.00;0.00;;;;;;;;;;5013065;28;20041;-82
2022/09/02 14:53:07;;;;;;;0.00;0.00;;;;;;;;;;5012749;28;20041;-83
2022/09/02 14:55:44;;;;;;;0.00;0.00;;;;;;;;;;5013245;28;20042;-82
2022/09/02 14:58:10;;;;;;;0.00;0.00;;;;;;;;;;5012997;28;20048;-83
2022/09/02 15:00:38;;;;;;;0.00;0.00;;;;;;;;;;5011781;28;20092;-83